createdAt,value
2022-09-11T00:03:56.393Z,99871.00
2022-09-11T00:09:01.189Z,99878.44
2022-09-11T00:14:05.535Z,99878.72
2022-09-11T00:19:11.247Z,99880.75
2022-09-11T00:24:14.078Z,99874.75
2022-09-11T00:29:18.171Z,99874.19
2022-09-11T00:34:20.851Z,99879.22
2022-09-11T00:39:23.490Z,99889.50
2022-09-11T00:45:01.211Z,99882.63
2022-09-11T00:50:19.322Z,99887.22
2022-09-11T00:55:26.707Z,99888.47
2022-09-11T01:00:31.325Z,99881.50
2022-09-11T01:05:37.812Z,99887.94
2022-09-11T01:10:51.389Z,99889.38
2022-09-11T01:16:10.562Z,99888.78
2022-09-11T01:21:34.501Z,99876.63
2022-09-11T01:27:02.817Z,99884.34
2022-09-11T01:32:15.829Z,99885.63
2022-09-11T01:37:26.415Z,99890.50
2022-09-11T01:42:32.977Z,99881.78
2022-09-11T01:47:38.745Z,99879.50
2022-09-11T01:52:50.386Z,99880.66
2022-09-11T01:57:59.589Z,99886.50
2022-09-11T02:03:10.810Z,99882.50
2022-09-11T02:08:17.601Z,99885.50
2022-09-11T02:13:29.724Z,99884.06
2022-09-11T02:18:42.332Z,99887.03
2022-09-11T02:23:45.475Z,99881.06
2022-09-11T02:28:51.985Z,99892.03
2022-09-11T02:33:57.320Z,99882.34
2022-09-11T02:39:11.982Z,99882.59
2022-09-11T02:44:26.842Z,99885.47
2022-09-11T02:49:44.905Z,99891.16
2022-09-11T02:54:54.904Z,99891.44
2022-09-11T03:00:01.215Z,99885.44
2022-09-11T03:05:08.341Z,99893.81
2022-09-11T03:10:12.105Z,99897.66
2022-09-11T03:15:16.704Z,99895.22
2022-09-11T03:20:21.948Z,99900.91
2022-09-11T03:25:28.168Z,99901.19
2022-09-11T03:30:33.501Z,99915.84
2022-09-11T03:35:38.429Z,99918.72
2022-09-11T03:40:43.414Z,99917.25
2022-09-11T03:45:47.044Z,99923.81
2022-09-11T03:50:51.118Z,99929.50
2022-09-11T03:55:54.788Z,99933.34
2022-09-11T04:00:57.807Z,99938.16
2022-09-11T04:06:03.327Z,99943.00
2022-09-11T04:11:09.577Z,99941.41
2022-09-11T04:16:15.419Z,99953.38
2022-09-11T04:21:21.013Z,99955.47
2022-09-11T04:26:29.218Z,99956.63
2022-09-11T04:31:38.385Z,99956.72
2022-09-11T04:36:44.324Z,99957.88
2022-09-11T04:41:50.964Z,99963.44
2022-09-11T04:46:53.589Z,99969.09
2022-09-11T04:52:02.691Z,99971.34
2022-09-11T04:57:05.834Z,99975.28
2022-09-11T05:02:10.427Z,99981.84
2022-09-11T05:07:17.761Z,99981.13
2022-09-11T05:12:23.993Z,99979.63
2022-09-11T05:17:26.700Z,99989.72
2022-09-11T05:22:31.333Z,99989.84
2022-09-11T05:27:36.197Z,100004.38
2022-09-11T05:32:40.004Z,100010.78
2022-09-11T05:37:44.662Z,100011.75
2022-09-11T05:42:47.354Z,100007.31
2022-09-11T05:47:52.203Z,100020.97
2022-09-11T05:52:59.628Z,100032.78
2022-09-11T05:58:02.548Z,100035.63
2022-09-11T06:03:05.550Z,100043.75
2022-09-11T06:08:11.060Z,100051.00
2022-09-11T06:13:17.686Z,100066.47
2022-09-11T06:18:22.450Z,100075.22
2022-09-11T06:23:29.691Z,100079.00
2022-09-11T06:28:35.366Z,100086.25
2022-09-11T06:33:40.934Z,100092.53
2022-09-11T06:38:45.643Z,100093.53
2022-09-11T06:43:50.526Z,100101.78
2022-09-11T06:48:53.389Z,100106.31
2022-09-11T06:54:02.190Z,100111.72
2022-09-11T06:59:09.074Z,100113.59
2022-09-11T07:04:12.062Z,100110.88
2022-09-11T07:09:16.241Z,100120.69
2022-09-11T07:14:25.029Z,100118.13
2022-09-11T07:19:35.662Z,100125.50
2022-09-11T07:24:40.033Z,100129.06
2022-09-11T07:29:42.817Z,100123.28
2022-09-11T07:34:47.644Z,100138.78
2022-09-11T07:39:51.904Z,100139.50
2022-09-11T07:44:58.112Z,100141.47
2022-09-11T07:50:03.067Z,100145.28
2022-09-11T07:55:09.581Z,100150.81
2022-09-11T08:00:16.453Z,100157.56
2022-09-11T08:05:33.188Z,100161.41
2022-09-11T08:10:40.925Z,100163.34
2022-09-11T08:15:47.425Z,100176.16
2022-09-11T08:20:54.517Z,100172.44
2022-09-11T08:26:03.703Z,100186.84
2022-09-11T08:31:07.759Z,100186.19
2022-09-11T08:36:14.584Z,100186.44
2022-09-11T08:41:31.088Z,100194.16
2022-09-11T08:46:37.824Z,100199.72
2022-09-11T08:51:40.740Z,100199.19
2022-09-11T08:56:45.424Z,100198.72
2022-09-11T09:02:04.563Z,100196.50
2022-09-11T09:07:18.781Z,100209.59
2022-09-11T09:12:32.392Z,100214.03
2022-09-11T09:17:42.413Z,100229.81
2022-09-11T09:22:51.587Z,100227.66
2022-09-11T09:28:04.777Z,100233.03
2022-09-11T09:33:27.308Z,100234.53
2022-09-11T09:38:31.834Z,100242.91
2022-09-11T09:43:50.077Z,100245.34
2022-09-11T09:48:52.837Z,100241.88
2022-09-11T09:54:01.428Z,100251.19
2022-09-11T09:59:18.097Z,100259.25
2022-09-11T10:04:23.742Z,100263.59
2022-09-11T10:09:29.453Z,100264.13
2022-09-11T10:14:56.988Z,100264.50
2022-09-11T10:20:21.807Z,100270.59
2022-09-11T10:25:26.633Z,100277.28
2022-09-11T10:30:39.464Z,100287.22
2022-09-11T10:35:50.898Z,100299.38
2022-09-11T10:40:58.197Z,100291.38
2022-09-11T10:46:22.054Z,100303.00
2022-09-11T10:51:27.024Z,100307.72
2022-09-11T10:56:29.794Z,100303.19
2022-09-11T11:01:33.994Z,100302.13
2022-09-11T11:06:51.099Z,100310.00
2022-09-11T11:12:14.437Z,100305.88
2022-09-11T11:17:28.520Z,100319.41
2022-09-11T11:23:00.154Z,100322.09
2022-09-11T11:28:16.197Z,100319.94
2022-09-11T11:34:00.415Z,100327.28
2022-09-11T11:39:16.283Z,100332.44
2022-09-11T11:44:32.854Z,100337.63
2022-09-11T11:49:49.216Z,100338.09
2022-09-11T11:54:59.891Z,100340.31
2022-09-11T12:00:08.371Z,100343.09
2022-09-11T12:05:24.981Z,100340.13
2022-09-11T12:10:33.372Z,100335.78
2022-09-11T12:15:36.664Z,100342.31
2022-09-11T12:20:42.989Z,100345.88
2022-09-11T12:26:06.028Z,100344.53
2022-09-11T12:31:11.288Z,100341.56
2022-09-11T12:36:18.112Z,100342.63
2022-09-11T12:41:27.833Z,100347.72
2022-09-11T12:47:16.313Z,100341.78
2022-09-11T12:52:32.141Z,100336.41
2022-09-11T12:57:40.002Z,100340.88
2022-09-11T13:02:46.705Z,100332.16
2022-09-11T13:07:56.332Z,100323.78
2022-09-11T13:12:59.970Z,100321.84
2022-09-11T13:18:03.301Z,100322.19
2022-09-11T13:23:18.440Z,100319.34
2022-09-11T13:28:25.418Z,100318.53
2022-09-11T13:33:32.043Z,100313.66
2022-09-11T13:38:38.524Z,100314.03
2022-09-11T13:43:45.983Z,100311.22
2022-09-11T13:48:50.624Z,100312.22
2022-09-11T13:54:05.671Z,100309.44
2022-09-11T13:59:38.344Z,100302.56
2022-09-11T14:04:43.278Z,100300.91
2022-09-11T14:09:57.876Z,100299.53
2022-09-11T14:15:08.095Z,100290.25
2022-09-11T14:20:18.068Z,100293.81
2022-09-11T14:25:23.880Z,100291.09
2022-09-11T14:30:36.877Z,100284.31
2022-09-11T14:35:40.472Z,100294.63
2022-09-11T14:40:50.695Z,100290.53
2022-09-11T14:45:54.602Z,100296.22
2022-09-11T14:50:58.016Z,100284.66
2022-09-11T14:56:03.709Z,100287.59
2022-09-11T15:01:06.724Z,100288.78
2022-09-11T15:06:14.809Z,100285.28
2022-09-11T15:11:18.759Z,100276.88
2022-09-11T15:16:21.656Z,100276.56
2022-09-11T15:21:24.246Z,100273.13
2022-09-11T15:26:28.481Z,100273.66
2022-09-11T15:31:31.151Z,100266.28
2022-09-11T15:36:34.204Z,100272.53
2022-09-11T15:41:38.144Z,100257.19
2022-09-11T15:46:40.700Z,100254.28
2022-09-11T15:51:44.268Z,100251.88
2022-09-11T15:56:48.361Z,100258.44
2022-09-11T16:01:51.017Z,100260.03
2022-09-11T16:06:54.350Z,100260.28
2022-09-11T16:12:00.166Z,100259.13
2022-09-11T16:17:05.428Z,100258.09
2022-09-11T16:22:08.744Z,100253.50
2022-09-11T16:27:12.725Z,100255.16
2022-09-11T16:32:27.792Z,100260.16
2022-09-11T16:37:32.706Z,100261.50
2022-09-11T16:42:36.762Z,100255.81
2022-09-11T16:47:39.352Z,100262.56
2022-09-11T16:52:41.918Z,100267.28
2022-09-11T16:57:46.237Z,100263.84
2022-09-11T17:02:48.780Z,100268.41
2022-09-11T17:07:51.738Z,100261.81
2022-09-11T17:12:56.619Z,100267.81
2022-09-11T17:17:59.286Z,100262.09
2022-09-11T17:23:02.012Z,100252.50
2022-09-11T17:28:06.586Z,100260.44
2022-09-11T17:33:09.188Z,100252.53
2022-09-11T17:38:11.997Z,100251.78
2022-09-11T17:43:15.879Z,100257.41
2022-09-11T17:48:18.654Z,100257.63
2022-09-11T17:53:22.684Z,100265.91
2022-09-11T17:58:26.574Z,100275.16
2022-09-11T18:03:31.027Z,100275.69
2022-09-11T18:08:34.413Z,100274.38
2022-09-11T18:13:38.402Z,100273.84
2022-09-11T18:18:41.733Z,100263.94
2022-09-11T18:23:46.516Z,100270.56
2022-09-11T18:28:50.596Z,100295.16
2022-09-11T18:33:55.171Z,100301.38
2022-09-11T18:39:01.013Z,100306.69
2022-09-11T18:44:08.587Z,100322.78
2022-09-11T18:49:14.171Z,100323.84
2022-09-11T18:54:21.308Z,100318.56
2022-09-11T18:59:25.581Z,100322.28
2022-09-11T19:04:28.359Z,100327.06
2022-09-11T19:09:30.920Z,100323.88
2022-09-11T19:14:35.866Z,100318.84
2022-09-11T19:19:38.480Z,100321.94
2022-09-11T19:24:42.516Z,100326.59
2022-09-11T19:29:47.052Z,100316.25
2022-09-11T19:34:50.164Z,100323.88
2022-09-11T19:39:53.210Z,100326.25
2022-09-11T19:44:57.134Z,100325.03
2022-09-11T19:50:00.316Z,100321.94
2022-09-11T19:55:03.820Z,100328.94
2022-09-11T20:00:09.893Z,100321.44
2022-09-11T20:05:12.653Z,100320.31
2022-09-11T20:10:15.812Z,100324.50
2022-09-11T20:15:19.948Z,100334.97
2022-09-11T20:20:22.529Z,100328.41
2022-09-11T20:25:25.186Z,100335.19
2022-09-11T20:30:32.483Z,100335.19
2022-09-11T20:35:35.673Z,100338.84
2022-09-11T20:40:38.426Z,100337.34
2022-09-11T20:45:43.587Z,100338.53
2022-09-11T20:50:46.112Z,100335.59
2022-09-11T20:55:49.049Z,100329.69
2022-09-11T21:00:53.192Z,100330.19
2022-09-11T21:05:56.573Z,100328.94
2022-09-11T21:11:02.882Z,100329.50
2022-09-11T21:16:09.498Z,100327.41
2022-09-11T21:21:12.115Z,100323.72
2022-09-11T21:26:18.014Z,100325.31
2022-09-11T21:31:22.015Z,100324.31
2022-09-11T21:36:24.779Z,100328.63
2022-09-11T21:41:27.343Z,100329.22
2022-09-11T21:46:31.422Z,100325.50
2022-09-11T21:51:34.005Z,100324.28
2022-09-11T21:56:36.727Z,100323.59
2022-09-11T22:01:40.710Z,100321.66
2022-09-11T22:06:43.386Z,100326.25
2022-09-11T22:11:45.989Z,100321.59
2022-09-11T22:16:49.939Z,100324.53
2022-09-11T22:21:54.002Z,100328.31
2022-09-11T22:26:56.663Z,100325.72
2022-09-11T22:32:00.632Z,100316.59
2022-09-11T22:37:04.253Z,100323.75
2022-09-11T22:42:07.091Z,100328.56
2022-09-11T22:47:11.020Z,100337.41
2022-09-11T22:52:13.694Z,100335.56
2022-09-11T22:57:16.263Z,100334.72
2022-09-11T23:02:21.208Z,100337.16
2022-09-11T23:07:24.601Z,100330.63
2022-09-11T23:12:27.192Z,100329.50
2022-09-11T23:17:31.099Z,100332.56
2022-09-11T23:22:33.804Z,100329.16
2022-09-11T23:27:36.377Z,100320.72
2022-09-11T23:32:42.035Z,100322.72
2022-09-11T23:37:45.519Z,100315.81
2022-09-11T23:42:48.377Z,100319.66
2022-09-11T23:47:52.360Z,100318.06
2022-09-11T23:52:54.983Z,100325.47
2022-09-11T23:57:57.573Z,100313.16
